Aviation Digital Data Service (ADDS)

Output produced by METARs form (1436 UTC 23 January 2019)
found at http://www.aviationweather.gov/metar/data/
 
Forecast for: DNIB (IBADAN , NG)
Text: TAF DNIB 230955Z 2312/2418 23010KT 8000 BKN014
Forecast period: 1200 to 1600 UTC 23 January 2019
Forecast type: FROM: standard forecast or significant change
Winds: from the SW (230 degrees) at 12 MPH (10 knots; 5.1 m/s)
Visibility: 5 miles (8 km)
Ceiling: 1400 feet AGL
Clouds: broken clouds at 1400 feet AGL
Weather: no significant weather forecast for this period
Text: BECMG 2316/2318 VRB02KT FEW010
Forecast period: 1600 UTC 23 January 2019 to 1800 UTC 24 January 2019
Forecast type: BECOMING: Conditions expected to become as follows by 1800 UTC 23 January 2019
Winds: variable direction winds at 2 MPH (2 knots; 1.0 m/s)
Visibility: 5 miles (8 km)
Ceiling: at least 12,000 feet AGL
Clouds: few clouds at 1000 feet AGL
Weather: no significant weather forecast for this period
Text: TEMPO 2405/2408 5000 HZ
Forecast period: 0500 to 0800 UTC 24 January 2019
Forecast type: TEMPORARY: The following changes expected for less than half the time period
Visibility: 3 miles (5 km)
Ceiling: unknown
Clouds: missing
Weather: HZ  (haze)